createdAt,value
2023-01-25T00:01:24.057Z,19.20
2023-01-25T00:04:48.013Z,20.50
2023-01-25T00:07:48.021Z,19.80
2023-01-25T00:11:17.034Z,19.80
2023-01-25T00:14:29.057Z,19.27
2023-01-25T00:17:41.109Z,20.73
2023-01-25T00:20:41.056Z,17.80
2023-01-25T00:23:53.117Z,20.17
2023-01-25T00:27:07.087Z,21.40
2023-01-25T00:30:20.065Z,18.07
2023-01-25T00:33:32.345Z,18.23
2023-01-25T00:36:59.131Z,17.20
2023-01-25T00:40:11.178Z,17.83
2023-01-25T00:43:37.208Z,19.75
2023-01-25T00:46:37.198Z,18.85
2023-01-25T00:50:01.241Z,19.20
2023-01-25T00:53:01.220Z,18.70
2023-01-25T00:56:14.170Z,17.83
2023-01-25T00:59:27.202Z,18.70
2023-01-25T01:02:39.161Z,18.60
2023-01-25T01:05:40.192Z,18.25
2023-01-25T01:09:05.190Z,17.25
2023-01-25T01:12:05.224Z,18.90
2023-01-25T01:15:31.253Z,17.30
2023-01-25T01:18:31.250Z,21.23
2023-01-25T01:21:58.303Z,17.60
2023-01-25T01:25:10.489Z,20.23
2023-01-25T01:28:34.325Z,17.50
2023-01-25T01:31:47.413Z,17.37
2023-01-25T01:35:00.375Z,23.30
2023-01-25T01:38:00.341Z,21.33
2023-01-25T01:41:18.374Z,20.25
2023-01-25T01:44:42.322Z,19.67
2023-01-25T01:48:08.355Z,21.43
2023-01-25T01:51:34.355Z,23.17
2023-01-25T01:54:59.332Z,22.57
2023-01-25T01:58:23.403Z,20.70
2023-01-25T02:01:47.373Z,22.97
2023-01-25T02:05:14.460Z,21.10
2023-01-25T02:08:41.444Z,21.80
2023-01-25T02:12:05.389Z,26.77
2023-01-25T02:15:17.413Z,21.90
2023-01-25T02:18:41.426Z,21.13
2023-01-25T02:22:06.431Z,24.50
2023-01-25T02:25:32.458Z,21.83
2023-01-25T02:28:59.505Z,19.55
2023-01-25T02:32:11.553Z,23.43
2023-01-25T02:35:37.476Z,21.47
2023-01-25T02:39:01.514Z,23.57
2023-01-25T02:42:27.531Z,21.40
2023-01-25T02:45:51.695Z,20.85
2023-01-25T02:49:03.565Z,21.40
2023-01-25T02:52:21.550Z,21.40
2023-01-25T02:55:33.488Z,23.17
2023-01-25T02:59:01.598Z,24.13
2023-01-25T03:02:14.681Z,19.65
2023-01-25T03:05:14.616Z,23.63
2023-01-25T03:08:26.635Z,23.07
2023-01-25T03:11:38.745Z,22.97
2023-01-25T03:15:05.868Z,20.73
2023-01-25T03:18:17.582Z,18.30
2023-01-25T03:21:44.673Z,23.13
2023-01-25T03:24:56.693Z,21.83
2023-01-25T03:28:09.737Z,22.27
2023-01-25T03:31:35.799Z,20.47
2023-01-25T03:35:00.738Z,19.83
2023-01-25T03:38:00.704Z,23.23
2023-01-25T03:41:25.721Z,23.77
2023-01-25T03:44:51.753Z,21.57
2023-01-25T03:48:17.779Z,22.50
2023-01-25T03:51:36.728Z,22.25
2023-01-25T03:54:48.806Z,23.07
2023-01-25T03:58:01.771Z,27.83
2023-01-25T04:01:28.745Z,20.23
2023-01-25T04:04:55.779Z,21.50
2023-01-25T04:08:07.804Z,24.77
2023-01-25T04:11:31.753Z,22.70
2023-01-25T04:14:45.011Z,22.93
2023-01-25T04:17:55.889Z,22.47
2023-01-25T04:21:09.807Z,23.87
2023-01-25T04:24:21.913Z,22.05
2023-01-25T04:27:21.899Z,23.65
2023-01-25T04:30:34.760Z,24.17
2023-01-25T04:33:58.817Z,22.43
2023-01-25T04:37:24.846Z,21.03
2023-01-25T04:40:36.865Z,23.40
2023-01-25T04:43:49.926Z,24.70
2023-01-25T04:47:02.020Z,21.95
2023-01-25T04:50:13.873Z,23.55
2023-01-25T04:53:40.005Z,22.83
2023-01-25T04:56:51.885Z,24.70
2023-01-25T05:00:03.913Z,21.60
2023-01-25T05:03:27.996Z,22.23
2023-01-25T05:06:40.034Z,22.33
2023-01-25T05:10:06.936Z,22.00
2023-01-25T05:13:31.959Z,23.97
2023-01-25T05:16:44.005Z,21.65
2023-01-25T05:19:55.982Z,21.00
2023-01-25T05:23:10.012Z,22.83
2023-01-25T05:26:44.558Z,20.87
2023-01-25T05:30:08.992Z,22.95
2023-01-25T05:33:20.999Z,20.53
2023-01-25T05:36:34.126Z,20.73
2023-01-25T05:39:58.088Z,20.57
2023-01-25T05:43:25.051Z,20.37
2023-01-25T05:46:37.050Z,20.47
2023-01-25T05:49:50.154Z,22.85
2023-01-25T05:53:15.156Z,19.40
2023-01-25T05:56:27.129Z,21.50
2023-01-25T05:59:53.190Z,21.87
2023-01-25T06:03:01.314Z,21.20
2023-01-25T06:06:25.104Z,22.27
2023-01-25T06:09:49.206Z,20.97
2023-01-25T06:13:01.156Z,22.40
2023-01-25T06:16:26.168Z,20.13
2023-01-25T06:19:39.246Z,22.23
2023-01-25T06:22:51.166Z,19.10
2023-01-25T06:26:15.263Z,20.10
2023-01-25T06:29:29.250Z,20.10
2023-01-25T06:32:58.201Z,22.93
2023-01-25T06:35:58.264Z,19.13
2023-01-25T06:39:25.220Z,19.07
2023-01-25T06:42:25.186Z,20.23
2023-01-25T06:45:37.274Z,20.57
2023-01-25T06:49:02.297Z,20.35
2023-01-25T06:52:27.231Z,19.73
2023-01-25T06:55:28.286Z,22.10
2023-01-25T06:58:53.349Z,18.15
2023-01-25T07:01:53.392Z,20.50
2023-01-25T07:05:18.315Z,22.40
2023-01-25T07:08:30.365Z,19.80
2023-01-25T07:11:54.366Z,20.63
2023-01-25T07:14:54.332Z,20.23
2023-01-25T07:18:18.357Z,18.83
2023-01-25T07:21:38.349Z,18.90
2023-01-25T07:24:51.443Z,19.20
2023-01-25T07:27:51.408Z,18.37
2023-01-25T07:31:03.390Z,21.95
2023-01-25T07:34:15.412Z,19.30
2023-01-25T07:37:41.408Z,18.40
2023-01-25T07:40:41.478Z,17.87
2023-01-25T07:43:53.429Z,18.60
2023-01-25T07:47:18.425Z,17.95
2023-01-25T07:50:30.542Z,19.20
2023-01-25T07:53:44.458Z,18.85
2023-01-25T07:56:56.493Z,21.33
2023-01-25T07:59:56.564Z,19.20
2023-01-25T08:03:14.521Z,16.90
2023-01-25T08:06:27.843Z,18.00
2023-01-25T08:09:41.556Z,18.25
2023-01-25T08:13:05.535Z,17.80
2023-01-25T08:16:17.558Z,17.10
2023-01-25T08:19:29.516Z,17.17
2023-01-25T08:22:41.706Z,16.17
2023-01-25T08:26:07.586Z,17.50
2023-01-25T08:29:19.609Z,18.15
2023-01-25T08:32:31.658Z,14.75
2023-01-25T08:35:31.593Z,14.57
2023-01-25T08:38:43.597Z,15.50
2023-01-25T08:42:09.615Z,16.15
2023-01-25T08:45:33.608Z,15.07
2023-01-25T08:48:42.680Z,14.30
2023-01-25T08:52:06.638Z,16.77
2023-01-25T08:55:06.706Z,16.03
2023-01-25T08:58:32.633Z,14.73
2023-01-25T09:01:32.638Z,15.47
2023-01-25T09:04:44.720Z,15.90
2023-01-25T09:07:44.752Z,17.33
2023-01-25T09:10:57.712Z,21.15
2023-01-25T09:14:11.717Z,18.67
2023-01-25T09:17:23.709Z,18.15
2023-01-25T09:20:26.811Z,16.90
2023-01-25T09:23:50.495Z,17.37
2023-01-25T09:26:55.738Z,17.35
2023-01-25T09:30:16.589Z,15.70
2023-01-25T09:33:22.819Z,17.40
2023-01-25T09:36:34.789Z,15.80
2023-01-25T09:39:34.842Z,16.67
2023-01-25T09:43:04.757Z,17.17
2023-01-25T09:46:17.873Z,18.05
2023-01-25T09:49:44.849Z,16.05
2023-01-25T09:53:00.819Z,18.37
2023-01-25T09:56:24.854Z,15.43
2023-01-25T09:59:36.885Z,17.70
2023-01-25T10:03:03.914Z,15.85
2023-01-25T10:06:29.569Z,16.27
2023-01-25T10:09:41.923Z,16.80
2023-01-25T10:13:06.944Z,15.90
2023-01-25T10:16:25.565Z,17.10
2023-01-25T10:19:45.936Z,17.33
2023-01-25T10:22:58.941Z,17.80
2023-01-25T10:26:23.962Z,17.70
2023-01-25T10:29:38.900Z,16.35
2023-01-25T10:33:04.949Z,16.87
2023-01-25T10:36:27.996Z,16.20
2023-01-25T10:39:42.045Z,19.03
2023-01-25T10:43:08.173Z,18.75
2023-01-25T10:46:08.038Z,17.95
2023-01-25T10:49:37.978Z,17.93
2023-01-25T10:52:50.059Z,17.30
2023-01-25T10:56:21.052Z,16.20
2023-01-25T10:59:34.090Z,16.70
2023-01-25T11:03:09.072Z,19.27
2023-01-25T11:06:21.085Z,17.40
2023-01-25T11:09:56.066Z,17.10
2023-01-25T11:13:10.128Z,16.90
2023-01-25T11:16:44.063Z,15.63
2023-01-25T11:20:00.147Z,18.00
2023-01-25T11:23:12.099Z,19.33
2023-01-25T11:26:35.094Z,17.30
2023-01-25T11:30:01.161Z,18.05
2023-01-25T11:33:13.175Z,19.63
2023-01-25T11:36:47.205Z,16.17
2023-01-25T11:40:04.135Z,15.90
2023-01-25T11:43:28.218Z,16.30
2023-01-25T11:46:46.277Z,18.55
2023-01-25T11:50:12.428Z,19.60
2023-01-25T11:53:25.233Z,14.65
2023-01-25T11:56:51.214Z,17.03
2023-01-25T12:00:03.235Z,15.33
2023-01-25T12:03:31.307Z,18.00
2023-01-25T12:06:46.367Z,15.57
2023-01-25T12:10:21.317Z,18.35
2023-01-25T12:13:34.330Z,16.85
2023-01-25T12:17:08.584Z,16.40
2023-01-25T12:20:23.276Z,18.53
2023-01-25T12:23:52.314Z,14.97
2023-01-25T12:27:05.338Z,16.05
2023-01-25T12:30:29.282Z,17.40
2023-01-25T12:33:45.307Z,18.65
2023-01-25T12:37:09.306Z,17.27
2023-01-25T12:40:23.438Z,16.07
2023-01-25T12:43:48.375Z,17.40
2023-01-25T12:47:00.431Z,17.70
2023-01-25T12:50:24.425Z,16.37
2023-01-25T12:53:36.400Z,16.25
2023-01-25T12:57:02.424Z,17.93
2023-01-25T13:00:15.389Z,16.93
2023-01-25T13:03:46.432Z,20.37
2023-01-25T13:06:59.451Z,17.20
2023-01-25T13:10:24.436Z,15.95
2023-01-25T13:13:45.461Z,17.03
2023-01-25T13:17:12.470Z,16.75
2023-01-25T13:20:24.430Z,16.93
2023-01-25T13:23:56.550Z,16.77
2023-01-25T13:27:10.514Z,18.30
2023-01-25T13:30:54.503Z,15.90
2023-01-25T13:33:54.594Z,16.35
2023-01-25T13:37:10.582Z,15.60
2023-01-25T13:40:22.582Z,15.77
2023-01-25T13:43:46.602Z,18.83
2023-01-25T13:47:00.544Z,18.90
2023-01-25T13:50:24.611Z,16.45
2023-01-25T13:53:46.614Z,19.57
2023-01-25T13:56:59.601Z,17.30
2023-01-25T14:00:11.814Z,15.67
2023-01-25T14:03:37.583Z,19.07
2023-01-25T14:06:49.654Z,15.43
2023-01-25T14:10:13.587Z,17.93
2023-01-25T14:13:13.832Z,16.25
2023-01-25T14:16:26.699Z,17.10
2023-01-25T14:19:46.679Z,18.13
2023-01-25T14:23:13.618Z,15.97
2023-01-25T14:26:16.319Z,15.50
2023-01-25T14:29:41.653Z,16.73
2023-01-25T14:32:41.784Z,16.80
2023-01-25T14:36:24.439Z,18.70
2023-01-25T14:39:13.694Z,17.67
2023-01-25T14:42:37.770Z,18.20
2023-01-25T14:45:49.751Z,15.10
2023-01-25T14:49:13.696Z,17.50
2023-01-25T14:52:28.743Z,20.05
2023-01-25T14:55:52.752Z,17.55
2023-01-25T14:59:04.734Z,16.73
2023-01-25T15:02:29.856Z,16.97
2023-01-25T15:05:45.825Z,17.33
2023-01-25T15:09:12.821Z,16.35
2023-01-25T15:12:24.879Z,16.30
2023-01-25T15:15:48.783Z,15.25
2023-01-25T15:19:09.870Z,16.33
2023-01-25T15:22:34.802Z,16.43
2023-01-25T15:25:48.923Z,16.37
2023-01-25T15:29:00.898Z,16.77
2023-01-25T15:32:12.929Z,19.87
2023-01-25T15:35:39.255Z,18.40
2023-01-25T15:38:39.947Z,18.47
2023-01-25T15:42:06.872Z,15.60
2023-01-25T15:45:07.958Z,16.50
2023-01-25T15:48:34.891Z,18.43
2023-01-25T15:51:46.970Z,16.80
2023-01-25T15:55:12.014Z,19.20
2023-01-25T15:58:26.028Z,15.95
2023-01-25T16:01:49.979Z,20.45
2023-01-25T16:05:03.010Z,19.70
2023-01-25T16:08:03.007Z,18.93
2023-01-25T16:11:15.986Z,18.80
2023-01-25T16:14:17.660Z,17.45
2023-01-25T16:17:44.050Z,17.65
2023-01-25T16:20:44.067Z,18.10
2023-01-25T16:23:56.105Z,18.85
2023-01-25T16:27:09.069Z,20.00
2023-01-25T16:30:37.128Z,18.27
2023-01-25T16:33:50.991Z,17.60
2023-01-25T16:37:15.114Z,19.23
2023-01-25T16:40:27.120Z,19.03
2023-01-25T16:43:42.976Z,21.50
2023-01-25T16:46:41.222Z,20.27
2023-01-25T16:50:07.102Z,16.17
2023-01-25T16:53:07.118Z,18.93
2023-01-25T16:56:20.259Z,18.50
2023-01-25T16:59:20.191Z,22.00
2023-01-25T17:02:32.233Z,19.40
2023-01-25T17:05:46.192Z,21.20
2023-01-25T17:09:21.847Z,23.65
2023-01-25T17:12:12.213Z,21.13
2023-01-25T17:15:37.277Z,22.67
2023-01-25T17:18:37.182Z,19.35
2023-01-25T17:22:03.182Z,21.30
2023-01-25T17:25:03.227Z,21.10
2023-01-25T17:28:16.235Z,18.95
2023-01-25T17:31:28.456Z,22.35
2023-01-25T17:34:40.322Z,24.67
2023-01-25T17:37:53.248Z,20.50
2023-01-25T17:41:05.272Z,22.45
2023-01-25T17:44:09.271Z,19.13
2023-01-25T17:47:22.279Z,25.20
2023-01-25T17:50:23.316Z,23.75
2023-01-25T17:53:56.347Z,24.73
2023-01-25T17:57:08.348Z,24.80
2023-01-25T18:00:24.371Z,25.75
2023-01-25T18:03:48.344Z,23.33
2023-01-25T18:07:00.362Z,26.87
2023-01-25T18:10:25.372Z,28.30
2023-01-25T18:13:25.379Z,25.80
2023-01-25T18:16:49.433Z,27.00
2023-01-25T18:19:49.410Z,28.55
2023-01-25T18:23:01.409Z,29.43
2023-01-25T18:26:15.414Z,30.10
2023-01-25T18:29:45.400Z,28.55
2023-01-25T18:32:45.441Z,32.20
2023-01-25T18:36:12.460Z,32.63
2023-01-25T18:39:12.419Z,24.37
2023-01-25T18:42:39.473Z,24.23
2023-01-25T18:45:39.461Z,29.40
2023-01-25T18:48:51.497Z,28.83
2023-01-25T18:52:10.570Z,33.57
2023-01-25T18:55:16.465Z,29.50
2023-01-25T18:58:30.545Z,30.47
2023-01-25T19:01:43.571Z,34.73
2023-01-25T19:04:43.568Z,32.25
2023-01-25T19:07:55.528Z,26.10
2023-01-25T19:10:55.516Z,30.60
2023-01-25T19:14:21.616Z,31.85
2023-01-25T19:17:21.618Z,30.95
2023-01-25T19:20:34.579Z,35.35
2023-01-25T19:23:34.564Z,33.40
2023-01-25T19:26:46.647Z,28.05
2023-01-25T19:30:00.644Z,33.80
2023-01-25T19:33:12.728Z,31.43
2023-01-25T19:36:24.612Z,35.03
2023-01-25T19:39:37.714Z,33.50
2023-01-25T19:42:37.636Z,33.17
2023-01-25T19:46:02.613Z,30.15
2023-01-25T19:49:21.622Z,31.75
2023-01-25T19:52:33.725Z,32.00
2023-01-25T19:55:33.703Z,30.87
2023-01-25T19:58:57.688Z,28.13
2023-01-25T20:02:11.741Z,32.97
2023-01-25T20:05:23.698Z,31.40
2023-01-25T20:08:23.731Z,34.10
2023-01-25T20:11:47.775Z,37.53
2023-01-25T20:14:59.719Z,34.90
2023-01-25T20:18:29.746Z,33.40
2023-01-25T20:21:53.703Z,36.17
2023-01-25T20:25:06.797Z,35.10
2023-01-25T20:28:06.815Z,32.80
2023-01-25T20:31:30.981Z,30.87
2023-01-25T20:34:44.829Z,33.20
2023-01-25T20:37:56.821Z,35.03
2023-01-25T20:40:56.820Z,32.60
2023-01-25T20:44:21.844Z,32.47
2023-01-25T20:47:21.881Z,32.97
2023-01-25T20:50:47.844Z,32.00
2023-01-25T20:53:59.873Z,33.40
2023-01-25T20:57:11.898Z,29.50
2023-01-25T21:00:11.945Z,34.37
2023-01-25T21:03:23.927Z,28.75
2023-01-25T21:06:27.959Z,34.70
2023-01-25T21:09:42.091Z,33.15
2023-01-25T21:12:39.912Z,34.50
2023-01-25T21:15:53.015Z,34.20
2023-01-25T21:19:04.948Z,30.75
2023-01-25T21:22:35.104Z,35.47
2023-01-25T21:25:46.919Z,30.53
2023-01-25T21:29:11.951Z,33.90
2023-01-25T21:32:12.008Z,33.90
2023-01-25T21:35:23.991Z,32.23
2023-01-25T21:38:38.000Z,29.27
2023-01-25T21:41:49.992Z,32.15
2023-01-25T21:44:55.848Z,32.30
2023-01-25T21:48:22.031Z,30.77
2023-01-25T21:51:49.050Z,34.10
2023-01-25T21:55:18.114Z,30.60
2023-01-25T21:58:18.071Z,27.83
2023-01-25T22:01:30.087Z,32.97
2023-01-25T22:04:43.130Z,34.33
2023-01-25T22:07:43.124Z,30.50
2023-01-25T22:11:09.112Z,32.93
2023-01-25T22:14:21.153Z,31.25
2023-01-25T22:17:34.119Z,27.37
2023-01-25T22:20:37.082Z,31.97
2023-01-25T22:23:49.149Z,26.80
2023-01-25T22:27:06.186Z,30.53
2023-01-25T22:30:31.267Z,27.40
2023-01-25T22:33:31.202Z,31.73
2023-01-25T22:36:55.197Z,28.53
2023-01-25T22:39:55.209Z,30.80
2023-01-25T22:43:30.187Z,28.37
2023-01-25T22:46:42.282Z,28.53
2023-01-25T22:49:54.227Z,29.47
2023-01-25T22:52:54.240Z,27.27
2023-01-25T22:56:23.245Z,32.20
2023-01-25T22:59:37.379Z,28.23
2023-01-25T23:02:50.247Z,27.37
2023-01-25T23:05:50.305Z,26.93
2023-01-25T23:09:14.254Z,30.33
2023-01-25T23:12:14.315Z,31.80
2023-01-25T23:18:36.287Z,28.80
2023-01-25T23:22:01.344Z,29.20
2023-01-25T23:25:19.345Z,35.67
2023-01-25T23:28:31.395Z,25.07
2023-01-25T23:31:43.401Z,29.13
2023-01-25T23:35:12.395Z,29.75
2023-01-25T23:38:19.373Z,27.07
2023-01-25T23:41:44.331Z,29.43
2023-01-25T23:44:44.373Z,27.27
2023-01-25T23:48:08.412Z,29.73
2023-01-25T23:51:25.456Z,26.90
2023-01-25T23:54:39.425Z,29.27
2023-01-25T23:57:51.408Z,29.03
